createdAt,value
2022-10-21T00:00:57.338Z,16.45
2022-10-21T00:03:28.495Z,16.67
2022-10-21T00:05:55.245Z,15.45
2022-10-21T00:08:23.442Z,14.85
2022-10-21T00:10:56.915Z,16.23
2022-10-21T00:13:25.651Z,15.80
2022-10-21T00:16:07.055Z,15.15
2022-10-21T00:18:36.661Z,15.63
2022-10-21T00:21:09.960Z,14.98
2022-10-21T00:23:37.222Z,14.40
2022-10-21T00:26:04.962Z,14.18
2022-10-21T00:28:32.593Z,13.73
2022-10-21T00:30:59.817Z,14.18
2022-10-21T00:33:28.626Z,13.88
2022-10-21T00:36:04.025Z,14.63
2022-10-21T00:38:31.901Z,14.02
2022-10-21T00:40:59.484Z,13.63
2022-10-21T00:43:28.043Z,15.48
2022-10-21T00:46:05.524Z,14.32
2022-10-21T00:48:45.077Z,13.65
2022-10-21T00:51:17.762Z,13.77
2022-10-21T00:53:49.230Z,13.85
2022-10-21T00:56:26.714Z,12.55
2022-10-21T00:58:59.417Z,15.50
2022-10-21T01:01:26.384Z,16.25
2022-10-21T01:03:53.203Z,15.05
2022-10-21T01:06:26.284Z,14.90
2022-10-21T01:08:55.337Z,15.75
2022-10-21T01:11:24.678Z,15.23
2022-10-21T01:14:22.625Z,14.63
2022-10-21T01:17:43.616Z,12.63
2022-10-21T01:20:31.393Z,14.75
2022-10-21T01:23:20.779Z,13.98
2022-10-21T01:26:22.928Z,14.50
2022-10-21T01:29:39.568Z,13.05
2022-10-21T01:32:38.742Z,12.70
2022-10-21T01:35:33.640Z,13.30
2022-10-21T01:38:20.091Z,12.75
2022-10-21T01:41:13.524Z,11.38
2022-10-21T01:44:19.107Z,11.50
2022-10-21T01:46:57.517Z,11.23
2022-10-21T01:49:34.334Z,11.65
2022-10-21T01:52:03.110Z,11.55
2022-10-21T01:54:47.904Z,11.30
2022-10-21T01:57:22.021Z,11.65
2022-10-21T01:59:51.783Z,10.65
2022-10-21T02:02:22.147Z,11.25
2022-10-21T02:04:51.712Z,11.63
2022-10-21T02:07:18.668Z,10.07
2022-10-21T02:09:45.402Z,11.82
2022-10-21T02:12:12.679Z,11.43
2022-10-21T02:14:48.617Z,13.27
2022-10-21T02:17:19.774Z,11.35
2022-10-21T02:19:46.611Z,12.45
2022-10-21T02:22:20.681Z,11.20
2022-10-21T02:24:57.193Z,10.30
2022-10-21T02:27:24.582Z,10.93
2022-10-21T02:29:57.140Z,9.27
2022-10-21T02:32:47.782Z,8.82
2022-10-21T02:36:08.332Z,9.60
2022-10-21T02:38:49.486Z,9.02
2022-10-21T02:41:23.278Z,9.18
2022-10-21T02:43:58.289Z,9.10
2022-10-21T02:46:26.390Z,8.57
2022-10-21T02:48:53.720Z,6.30
2022-10-21T02:51:20.532Z,7.90
2022-10-21T02:53:47.310Z,8.52
2022-10-21T02:56:14.111Z,8.35
2022-10-21T02:58:40.844Z,8.25
2022-10-21T03:01:07.637Z,8.73
2022-10-21T03:03:34.428Z,8.07
2022-10-21T03:06:01.207Z,8.10
2022-10-21T03:08:28.079Z,8.77
2022-10-21T03:10:54.952Z,8.07
2022-10-21T03:13:22.883Z,8.80
2022-10-21T03:15:51.181Z,9.30
2022-10-21T03:18:18.895Z,9.35
2022-10-21T03:20:50.155Z,10.25
2022-10-21T03:23:18.746Z,10.05
2022-10-21T03:25:45.801Z,9.82
2022-10-21T03:28:13.396Z,9.10
2022-10-21T03:30:40.229Z,10.13
2022-10-21T03:33:06.956Z,9.90
2022-10-21T03:35:33.726Z,8.75
2022-10-21T03:38:00.454Z,10.02
2022-10-21T03:40:30.344Z,10.10
2022-10-21T03:42:58.568Z,9.32
2022-10-21T03:45:26.214Z,9.77
2022-10-21T03:47:53.272Z,9.60
2022-10-21T03:50:23.762Z,10.73
2022-10-21T03:52:53.563Z,9.98
2022-10-21T03:55:21.030Z,10.30
2022-10-21T03:57:48.420Z,9.73
2022-10-21T04:00:15.885Z,9.95
2022-10-21T04:02:43.145Z,10.48
2022-10-21T04:05:11.123Z,10.55
2022-10-21T04:07:38.571Z,11.32
2022-10-21T04:10:07.207Z,10.70
2022-10-21T04:12:34.265Z,10.77
2022-10-21T04:15:01.123Z,11.52
2022-10-21T04:17:27.964Z,11.25
2022-10-21T04:19:54.730Z,9.57
2022-10-21T04:22:21.559Z,10.48
2022-10-21T04:24:48.310Z,10.07
2022-10-21T04:27:15.087Z,10.18
2022-10-21T04:29:41.895Z,9.65
2022-10-21T04:32:08.635Z,9.90
2022-10-21T04:34:35.410Z,10.60
2022-10-21T04:37:04.874Z,10.65
2022-10-21T04:39:32.223Z,9.75
2022-10-21T04:41:59.210Z,10.50
2022-10-21T04:44:26.158Z,10.40
2022-10-21T04:46:53.076Z,9.52
2022-10-21T04:49:19.897Z,10.45
2022-10-21T04:51:46.744Z,10.07
2022-10-21T04:54:13.737Z,10.40
2022-10-21T04:56:41.774Z,11.00
2022-10-21T04:59:08.856Z,10.18
2022-10-21T05:01:35.855Z,10.45
2022-10-21T05:04:02.583Z,10.45
2022-10-21T05:06:29.380Z,11.18
2022-10-21T05:08:56.279Z,11.43
2022-10-21T05:11:23.149Z,10.40
2022-10-21T05:13:49.909Z,10.40
2022-10-21T05:16:16.727Z,11.55
2022-10-21T05:18:43.479Z,11.27
2022-10-21T05:21:10.202Z,11.10
2022-10-21T05:23:37.038Z,10.95
2022-10-21T05:26:04.008Z,10.65
2022-10-21T05:28:30.743Z,10.90
2022-10-21T05:30:57.528Z,11.70
2022-10-21T05:33:24.437Z,11.18
2022-10-21T05:36:07.684Z,11.35
2022-10-21T05:38:35.626Z,11.18
2022-10-21T05:41:02.881Z,11.57
2022-10-21T05:43:29.714Z,11.02
2022-10-21T05:45:57.113Z,12.43
2022-10-21T05:48:24.753Z,12.43
2022-10-21T05:50:54.192Z,11.80
2022-10-21T05:53:24.814Z,10.98
2022-10-21T05:56:01.316Z,12.13
2022-10-21T05:58:30.126Z,10.70
2022-10-21T06:00:57.918Z,11.15
2022-10-21T06:03:32.317Z,11.13
2022-10-21T06:06:06.617Z,11.65
2022-10-21T06:08:36.552Z,11.82
2022-10-21T06:11:10.191Z,11.15
2022-10-21T06:13:37.575Z,10.93
2022-10-21T06:18:39.328Z,10.77
2022-10-21T06:21:07.054Z,11.13
2022-10-21T06:23:34.492Z,10.23
2022-10-21T06:26:06.042Z,10.55
2022-10-21T06:28:36.035Z,10.13
2022-10-21T06:31:04.043Z,10.35
2022-10-21T06:33:30.830Z,10.38
2022-10-21T06:35:57.777Z,10.27
2022-10-21T06:38:36.647Z,10.43
2022-10-21T06:41:09.257Z,10.27
2022-10-21T06:43:39.626Z,10.88
2022-10-21T06:46:12.110Z,11.70
2022-10-21T06:48:39.735Z,10.73
2022-10-21T06:51:15.112Z,10.38
2022-10-21T06:53:43.096Z,9.35
2022-10-21T06:56:16.639Z,10.75
2022-10-21T06:58:47.861Z,10.52
2022-10-21T07:01:33.443Z,11.63
2022-10-21T07:04:00.940Z,10.18
2022-10-21T07:06:27.769Z,9.07
2022-10-21T07:08:58.985Z,8.38
2022-10-21T07:11:27.701Z,8.45
2022-10-21T07:13:55.249Z,7.55
2022-10-21T07:16:34.503Z,7.63
2022-10-21T07:19:01.583Z,8.52
2022-10-21T07:21:31.126Z,8.43
2022-10-21T07:23:59.935Z,9.43
2022-10-21T07:26:29.972Z,10.05
2022-10-21T07:28:59.657Z,10.00
2022-10-21T07:31:28.153Z,9.70
2022-10-21T07:33:55.362Z,10.23
2022-10-21T07:36:29.313Z,10.10
2022-10-21T07:39:02.333Z,9.57
2022-10-21T07:41:37.746Z,9.27
2022-10-21T07:44:06.280Z,8.65
2022-10-21T07:46:33.596Z,9.45
2022-10-21T07:49:00.961Z,9.05
2022-10-21T07:51:30.150Z,8.23
2022-10-21T07:54:00.610Z,8.88
2022-10-21T07:56:39.745Z,7.43
2022-10-21T07:59:12.417Z,7.35
2022-10-21T08:01:44.375Z,8.38
2022-10-21T08:04:15.573Z,9.50
2022-10-21T08:06:46.561Z,9.63
2022-10-21T08:09:14.699Z,9.10
2022-10-21T08:11:41.966Z,9.00
2022-10-21T08:14:10.626Z,8.73
2022-10-21T08:16:38.534Z,8.38
2022-10-21T08:19:07.150Z,9.32
2022-10-21T08:21:34.795Z,9.23
2022-10-21T08:24:03.745Z,9.73
2022-10-21T08:26:30.965Z,8.80
2022-10-21T08:31:25.543Z,9.77
2022-10-21T08:33:52.428Z,10.30
2022-10-21T08:36:22.763Z,10.30
2022-10-21T08:38:49.947Z,9.77
2022-10-21T08:41:28.885Z,10.10
2022-10-21T08:44:19.935Z,9.85
2022-10-21T08:46:57.111Z,9.95
2022-10-21T08:49:45.187Z,9.73
2022-10-21T08:52:21.264Z,10.60
2022-10-21T08:54:58.405Z,10.77
2022-10-21T08:57:25.734Z,9.30
2022-10-21T08:59:53.005Z,9.00
2022-10-21T09:02:35.289Z,8.20
2022-10-21T09:05:37.540Z,8.25
2022-10-21T09:08:25.007Z,7.07
2022-10-21T09:11:03.724Z,7.43
2022-10-21T09:14:35.701Z,6.72
2022-10-21T09:17:18.403Z,6.70
2022-10-21T09:19:53.863Z,5.13
2022-10-21T09:22:34.893Z,5.20
2022-10-21T09:25:27.441Z,4.97
2022-10-21T09:27:57.200Z,3.85
2022-10-21T09:30:25.485Z,3.28
2022-10-21T09:33:01.544Z,3.47
2022-10-21T09:35:43.653Z,3.08
2022-10-21T09:38:41.767Z,3.17
2022-10-21T09:41:19.521Z,3.10
2022-10-21T09:43:48.843Z,3.35
2022-10-21T09:46:17.068Z,3.15
2022-10-21T09:51:45.004Z,3.53
2022-10-21T09:54:19.601Z,3.45
2022-10-21T09:57:00.426Z,2.80
2022-10-21T09:59:32.847Z,4.10
2022-10-21T10:02:13.111Z,4.95
2022-10-21T10:04:39.975Z,3.92
2022-10-21T10:07:35.647Z,7.95
2022-10-21T10:10:24.662Z,3.50
2022-10-21T10:12:59.381Z,3.47
2022-10-21T10:15:36.936Z,2.78
2022-10-21T10:18:04.515Z,2.45
2022-10-21T10:20:31.275Z,2.17
2022-10-21T10:23:00.754Z,2.45
2022-10-21T10:25:38.782Z,2.75
2022-10-21T10:28:08.549Z,2.35
2022-10-21T10:30:54.021Z,2.22
2022-10-21T10:33:34.493Z,2.13
2022-10-21T10:36:09.442Z,2.42
2022-10-21T10:38:52.442Z,2.40
2022-10-21T10:41:19.454Z,2.35
2022-10-21T10:43:54.256Z,2.20
2022-10-21T10:46:31.864Z,2.10
2022-10-21T10:49:21.225Z,3.17
2022-10-21T10:52:11.858Z,3.40
2022-10-21T10:54:41.706Z,2.92
2022-10-21T10:57:38.969Z,3.33
2022-10-21T11:00:23.957Z,2.92
2022-10-21T11:03:25.806Z,2.58
2022-10-21T11:06:06.928Z,2.38
2022-10-21T11:08:43.394Z,3.08
2022-10-21T11:11:26.029Z,2.85
2022-10-21T11:13:54.052Z,3.53
2022-10-21T11:16:59.682Z,2.90
2022-10-21T11:20:00.426Z,3.15
2022-10-21T11:22:55.558Z,3.50
2022-10-21T11:25:39.103Z,2.72
2022-10-21T11:28:33.624Z,2.47
2022-10-21T11:31:30.344Z,2.25
2022-10-21T11:34:26.603Z,2.55
2022-10-21T11:37:25.302Z,2.10
2022-10-21T11:40:26.583Z,2.35
2022-10-21T11:42:58.308Z,1.90
2022-10-21T11:45:52.063Z,1.85
2022-10-21T11:48:55.079Z,1.98
2022-10-21T11:51:51.173Z,2.20
2022-10-21T11:54:35.486Z,1.98
2022-10-21T11:57:28.112Z,2.40
2022-10-21T12:00:05.735Z,2.28
2022-10-21T12:03:32.603Z,2.70
2022-10-21T12:06:04.975Z,1.90
2022-10-21T12:08:41.394Z,2.60
2022-10-21T12:11:43.839Z,2.53
2022-10-21T12:14:32.600Z,2.20
2022-10-21T12:17:05.587Z,2.03
2022-10-21T12:19:32.473Z,2.17
2022-10-21T12:21:59.763Z,2.10
2022-10-21T12:25:08.066Z,2.03
2022-10-21T12:27:55.651Z,2.47
2022-10-21T12:30:39.668Z,1.80
2022-10-21T12:33:31.182Z,1.60
2022-10-21T12:36:25.703Z,1.88
2022-10-21T12:38:58.731Z,1.83
2022-10-21T12:41:34.926Z,1.70
2022-10-21T12:44:01.595Z,1.73
2022-10-21T12:46:40.200Z,1.50
2022-10-21T12:49:30.616Z,1.60
2022-10-21T12:52:07.562Z,1.70
2022-10-21T12:55:03.212Z,2.10
2022-10-21T12:57:37.210Z,1.70
2022-10-21T13:00:27.251Z,1.73
2022-10-21T13:03:09.045Z,1.95
2022-10-21T13:05:38.549Z,1.60
2022-10-21T13:08:25.606Z,1.70
2022-10-21T13:11:06.934Z,1.92
2022-10-21T13:13:48.639Z,1.88
2022-10-21T13:16:18.703Z,2.05
2022-10-21T13:19:16.690Z,1.90
2022-10-21T13:21:49.649Z,1.58
2022-10-21T13:24:30.162Z,1.52
2022-10-21T13:27:04.408Z,1.58
2022-10-21T13:29:45.279Z,1.50
2022-10-21T13:32:15.161Z,1.77
2022-10-21T13:35:03.624Z,1.63
2022-10-21T13:37:42.601Z,1.73
2022-10-21T13:40:21.580Z,1.90
2022-10-21T13:42:57.708Z,1.80
2022-10-21T13:45:37.336Z,1.90
2022-10-21T13:48:16.728Z,1.80
2022-10-21T13:50:50.319Z,1.70
2022-10-21T13:53:22.896Z,2.05
2022-10-21T13:56:03.964Z,1.70
2022-10-21T13:58:36.068Z,1.85
2022-10-21T14:01:26.781Z,1.77
2022-10-21T14:04:12.078Z,1.58
2022-10-21T14:06:46.505Z,1.67
2022-10-21T14:09:23.763Z,1.70
2022-10-21T14:12:03.264Z,1.55
2022-10-21T14:14:33.244Z,1.58
2022-10-21T14:17:15.281Z,1.35
2022-10-21T14:19:47.802Z,1.98
2022-10-21T14:22:23.077Z,1.73
2022-10-21T14:25:01.707Z,1.63
2022-10-21T14:27:32.522Z,1.92
2022-10-21T14:30:05.282Z,1.63
2022-10-21T14:32:32.738Z,1.67
2022-10-21T14:35:24.369Z,1.65
2022-10-21T14:37:55.775Z,1.40
2022-10-21T14:40:42.737Z,2.03
2022-10-21T14:43:12.481Z,1.42
2022-10-21T14:45:47.735Z,1.65
2022-10-21T14:48:14.507Z,1.55
2022-10-21T14:50:43.331Z,1.60
2022-10-21T14:53:18.052Z,1.60
2022-10-21T14:55:50.735Z,1.80
2022-10-21T14:58:24.124Z,2.28
2022-10-21T15:01:00.750Z,2.10
2022-10-21T15:04:00.937Z,2.10
2022-10-21T15:06:36.943Z,1.88
2022-10-21T15:09:09.809Z,2.08
2022-10-21T15:11:45.852Z,2.10
2022-10-21T15:14:12.496Z,2.45
2022-10-21T15:16:51.661Z,1.92
2022-10-21T15:19:26.922Z,1.80
2022-10-21T15:22:03.554Z,2.30
2022-10-21T15:24:39.079Z,2.03
2022-10-21T15:27:06.213Z,2.20
2022-10-21T15:29:42.696Z,1.73
2022-10-21T15:32:13.463Z,1.60
2022-10-21T15:34:40.279Z,1.52
2022-10-21T15:37:07.432Z,1.45
2022-10-21T15:39:34.231Z,2.42
2022-10-21T15:42:01.700Z,1.50
2022-10-21T15:44:31.364Z,1.50
2022-10-21T15:47:01.661Z,1.50
2022-10-21T15:49:34.380Z,2.30
2022-10-21T15:52:01.461Z,1.63
2022-10-21T15:54:28.307Z,2.15
2022-10-21T15:56:55.532Z,1.85
2022-10-21T15:59:28.002Z,2.00
2022-10-21T16:01:56.510Z,1.98
2022-10-21T16:04:24.488Z,1.40
2022-10-21T16:06:53.094Z,1.73
2022-10-21T16:09:27.021Z,1.90
2022-10-21T16:12:00.337Z,2.38
2022-10-21T16:14:30.861Z,1.42
2022-10-21T16:16:59.523Z,1.70
2022-10-21T16:19:26.659Z,1.48
2022-10-21T16:21:53.617Z,1.80
2022-10-21T16:24:20.471Z,1.70
2022-10-21T16:26:49.838Z,1.65
2022-10-21T16:29:21.446Z,2.17
2022-10-21T16:31:49.017Z,1.95
2022-10-21T16:34:16.130Z,1.90
2022-10-21T16:36:43.519Z,2.00
2022-10-21T16:39:16.966Z,1.90
2022-10-21T16:41:43.762Z,2.53
2022-10-21T16:44:10.703Z,2.30
2022-10-21T16:46:44.136Z,1.90
2022-10-21T16:49:14.753Z,2.38
2022-10-21T16:51:47.658Z,2.05
2022-10-21T16:54:16.201Z,2.08
2022-10-21T16:56:42.981Z,1.73
2022-10-21T16:59:09.888Z,1.65
2022-10-21T17:01:37.536Z,2.10
2022-10-21T17:04:05.015Z,1.92
2022-10-21T17:06:32.392Z,2.00
2022-10-21T17:08:59.201Z,1.58
2022-10-21T17:11:38.092Z,1.65
2022-10-21T17:14:08.039Z,1.63
2022-10-21T17:16:34.858Z,1.95
2022-10-21T17:19:01.647Z,1.60
2022-10-21T17:21:32.342Z,1.95
2022-10-21T17:24:02.077Z,1.73
2022-10-21T17:26:36.631Z,2.08
2022-10-21T17:29:03.414Z,2.17
2022-10-21T17:31:31.345Z,2.30
2022-10-21T17:34:06.263Z,2.05
2022-10-21T17:36:35.022Z,2.15
2022-10-21T17:39:01.905Z,2.13
2022-10-21T17:41:28.738Z,2.22
2022-10-21T17:43:55.991Z,2.58
2022-10-21T17:46:25.320Z,2.13
2022-10-21T17:48:54.840Z,1.58
2022-10-21T17:51:23.738Z,2.13
2022-10-21T17:53:52.727Z,2.17
2022-10-21T17:56:20.182Z,2.10
2022-10-21T17:58:52.679Z,2.50
2022-10-21T18:01:21.318Z,1.88
2022-10-21T18:03:48.713Z,2.50
2022-10-21T18:06:16.150Z,2.47
2022-10-21T18:08:43.984Z,3.20
2022-10-21T18:11:14.950Z,2.55
2022-10-21T18:13:42.945Z,2.33
2022-10-21T18:16:14.736Z,3.28
2022-10-21T18:21:18.766Z,2.75
2022-10-21T18:23:49.167Z,2.88
2022-10-21T18:26:20.971Z,2.83
2022-10-21T18:29:00.309Z,3.72
2022-10-21T18:31:30.460Z,4.88
2022-10-21T18:34:01.001Z,7.70
2022-10-21T18:36:27.937Z,4.97
2022-10-21T18:38:55.030Z,3.47
2022-10-21T18:41:22.469Z,5.90
2022-10-21T18:43:57.338Z,14.50
2022-10-21T18:46:24.136Z,11.73
2022-10-21T18:48:51.448Z,10.90
2022-10-21T18:51:20.523Z,12.77
2022-10-21T18:53:51.693Z,24.67
2022-10-21T18:56:22.235Z,19.35
2022-10-21T18:58:50.227Z,15.45
2022-10-21T19:01:19.313Z,13.55
2022-10-21T19:03:46.330Z,20.45
2022-10-21T19:06:46.505Z,34.83
2022-10-21T19:09:21.052Z,24.38
2022-10-21T19:11:48.879Z,34.88
2022-10-21T19:14:17.762Z,33.72
2022-10-21T19:16:47.158Z,28.13
2022-10-21T19:19:16.124Z,21.23
2022-10-21T19:21:43.225Z,23.85
2022-10-21T19:24:10.444Z,24.45
2022-10-21T19:26:40.797Z,33.97
2022-10-21T19:29:16.877Z,18.42
2022-10-21T19:31:44.820Z,23.70
2022-10-21T19:34:21.314Z,20.88
2022-10-21T19:36:48.717Z,14.85
2022-10-21T19:39:18.194Z,15.80
2022-10-21T19:41:45.448Z,19.38
2022-10-21T19:44:12.409Z,20.33
2022-10-21T19:46:39.330Z,16.63
2022-10-21T19:49:08.618Z,19.80
2022-10-21T19:51:37.118Z,22.35
2022-10-21T19:54:08.964Z,10.70
2022-10-21T19:56:35.954Z,11.05
2022-10-21T19:59:04.177Z,16.27
2022-10-21T20:01:33.393Z,18.25
2022-10-21T20:04:01.971Z,20.40
2022-10-21T20:06:32.794Z,24.92
2022-10-21T20:09:04.812Z,24.98
2022-10-21T20:11:32.072Z,22.48
2022-10-21T20:13:59.689Z,19.58
2022-10-21T20:16:33.281Z,18.88
2022-10-21T20:19:02.481Z,18.45
2022-10-21T20:21:31.960Z,18.70
2022-10-21T20:23:59.673Z,17.70
2022-10-21T20:26:28.747Z,17.15
2022-10-21T20:28:56.305Z,17.83
2022-10-21T20:31:23.316Z,23.15
2022-10-21T20:33:52.110Z,22.20
2022-10-21T20:36:29.153Z,19.23
2022-10-21T20:38:59.528Z,22.23
2022-10-21T20:41:33.474Z,16.20
2022-10-21T20:44:02.532Z,11.27
2022-10-21T20:46:35.063Z,14.25
2022-10-21T20:49:07.186Z,14.98
2022-10-21T20:51:37.507Z,15.38
2022-10-21T20:54:17.677Z,17.10
2022-10-21T20:56:45.197Z,17.23
2022-10-21T20:59:17.417Z,16.10
2022-10-21T21:01:46.862Z,12.82
2022-10-21T21:04:16.543Z,11.85
2022-10-21T21:06:47.042Z,9.38
2022-10-21T21:12:04.460Z,13.52
2022-10-21T21:14:32.050Z,15.75
2022-10-21T21:16:58.877Z,14.15
2022-10-21T21:19:25.822Z,15.32
2022-10-21T21:21:53.178Z,14.40
2022-10-21T21:24:19.942Z,14.40
2022-10-21T21:26:46.962Z,13.60
2022-10-21T21:29:14.299Z,14.05
2022-10-21T21:31:42.581Z,13.20
2022-10-21T21:34:10.619Z,13.55
2022-10-21T21:36:37.822Z,14.98
2022-10-21T21:39:07.895Z,11.95
2022-10-21T21:41:35.957Z,16.58
2022-10-21T21:44:04.700Z,12.77
2022-10-21T21:46:31.509Z,13.73
2022-10-21T21:49:06.002Z,15.52
2022-10-21T21:51:35.881Z,16.45
2022-10-21T21:54:04.772Z,14.48
2022-10-21T21:56:31.597Z,15.77
2022-10-21T21:58:58.586Z,15.32
2022-10-21T22:01:29.267Z,13.32
2022-10-21T22:03:56.769Z,13.18
2022-10-21T22:06:28.095Z,16.67
2022-10-21T22:08:55.265Z,18.75
2022-10-21T22:11:25.705Z,20.95
2022-10-21T22:13:52.821Z,18.40
2022-10-21T22:16:21.961Z,19.48
2022-10-21T22:18:48.936Z,15.93
2022-10-21T22:21:18.374Z,14.73
2022-10-21T22:23:46.424Z,14.90
2022-10-21T22:26:15.136Z,17.85
2022-10-21T22:28:42.680Z,14.77
2022-10-21T22:31:14.523Z,15.52
2022-10-21T22:36:16.313Z,14.80
2022-10-21T22:38:44.783Z,16.30
2022-10-21T22:41:12.851Z,15.60
2022-10-21T22:43:40.510Z,12.52
2022-10-21T22:46:22.027Z,9.27
2022-10-21T22:48:54.253Z,8.13
2022-10-21T22:51:21.300Z,9.00
2022-10-21T22:53:53.458Z,10.80
2022-10-21T22:56:23.987Z,9.52
2022-10-21T22:58:50.765Z,11.02
2022-10-21T23:01:17.600Z,12.00
2022-10-21T23:03:44.347Z,13.20
2022-10-21T23:06:11.164Z,12.63
2022-10-21T23:08:38.100Z,10.15
2022-10-21T23:11:05.072Z,9.65
2022-10-21T23:13:31.941Z,15.27
2022-10-21T23:16:00.328Z,14.27
2022-10-21T23:18:27.117Z,16.40
2022-10-21T23:20:54.131Z,15.07
2022-10-21T23:23:20.984Z,12.45
2022-10-21T23:25:47.787Z,12.52
2022-10-21T23:28:14.672Z,9.38
2022-10-21T23:30:43.164Z,8.85
2022-10-21T23:33:10.270Z,9.50
2022-10-21T23:35:37.011Z,9.57
2022-10-21T23:38:03.746Z,12.10
2022-10-21T23:40:30.495Z,9.70
2022-10-21T23:42:57.238Z,9.38
2022-10-21T23:45:24.023Z,6.47
2022-10-21T23:47:50.831Z,6.50
2022-10-21T23:50:17.645Z,9.65
2022-10-21T23:52:44.365Z,8.60
2022-10-21T23:55:11.271Z,9.05
2022-10-21T23:57:38.264Z,11.50
